Time;durP1;ratioP1;P1;durP2;ratioP2;P2;SDS_P1;SDS_P2;PMS_P1;PMS_P2;Temp;Humidity;BMP_temperature;BMP_pressure;BME280_temperature;BME280_humidity;BME280_pressure;Samples;Min_cycle;Max_cycle;Signal;HPM_P1;HPM_P2
2021/06/27 00:00:24;;;;;;;11.63;10.60;;;18.30;99.90;;;;;;5019264;28;20211;-65
2021/06/27 00:02:50;;;;;;;12.80;9.77;;;18.20;99.90;;;;;;5022518;28;20179;-64
2021/06/27 00:05:19;;;;;;;11.20;10.10;;;18.10;99.90;;;;;;5020472;28;20287;-64
2021/06/27 00:07:45;;;;;;;11.53;10.57;;;18.10;99.90;;;;;;5011394;28;20654;-65
2021/06/27 00:10:15;;;;;;;10.70;9.80;;;18.00;99.90;;;;;;5018565;28;20672;-65
2021/06/27 00:12:42;;;;;;;11.23;10.33;;;18.00;99.90;;;;;;5031534;28;20594;-64
2021/06/27 00:15:13;;;;;;;11.33;10.43;;;18.00;99.90;;;;;;5016996;28;20215;-65
2021/06/27 00:17:39;;;;;;;11.97;10.67;;;17.90;99.90;;;;;;5021094;28;20544;-64
2021/06/27 00:20:08;;;;;;;12.03;10.97;;;17.90;99.90;;;;;;5017489;28;20275;-64
2021/06/27 00:22:33;;;;;;;12.13;11.10;;;17.90;99.90;;;;;;5019913;28;20290;-65
2021/06/27 00:24:59;;;;;;;11.87;10.80;;;17.90;99.90;;;;;;5016717;28;20267;-65
2021/06/27 00:27:24;;;;;;;11.43;10.50;;;17.90;99.90;;;;;;5012277;28;20200;-65
2021/06/27 00:29:50;;;;;;;11.83;10.83;;;18.00;99.90;;;;;;5021245;28;20185;-65
2021/06/27 00:32:16;;;;;;;11.67;10.67;;;17.90;99.90;;;;;;5011576;28;20594;-65
2021/06/27 00:34:41;;;;;;;11.40;10.27;;;17.80;99.90;;;;;;5012288;28;20261;-65
2021/06/27 00:37:08;;;;;;;10.23;9.43;;;17.80;99.90;;;;;;5012356;28;20173;-65
2021/06/27 00:39:35;;;;;;;11.00;10.00;;;17.70;99.90;;;;;;5011310;28;20251;-65
2021/06/27 00:42:00;;;;;;;11.33;10.33;;;17.80;99.90;;;;;;5011607;28;20606;-64
2021/06/27 00:44:26;;;;;;;11.90;10.90;;;17.60;99.90;;;;;;5021419;28;20259;-65
2021/06/27 00:46:53;;;;;;;10.67;9.77;;;17.50;99.90;;;;;;5012193;28;20246;-65
2021/06/27 00:49:20;;;;;;;12.40;11.20;;;17.40;99.90;;;;;;5011257;28;20196;-65
2021/06/27 00:51:47;;;;;;;12.80;11.60;;;17.40;99.90;;;;;;5011364;28;20543;-65
2021/06/27 00:54:13;;;;;;;11.70;10.70;;;17.40;99.90;;;;;;5010516;28;20703;-65
2021/06/27 00:56:39;;;;;;;12.17;11.07;;;17.40;99.90;;;;;;5010191;28;20250;-65
2021/06/27 00:59:04;;;;;;;13.07;11.97;;;17.40;99.90;;;;;;5012794;28;20696;-65
2021/06/27 01:01:30;;;;;;;10.60;9.80;;;17.40;99.90;;;;;;5011311;28;20176;-64
2021/06/27 01:03:56;;;;;;;12.50;11.40;;;17.40;99.90;;;;;;5022079;28;20618;-65
2021/06/27 01:06:21;;;;;;;13.17;11.97;;;17.30;99.90;;;;;;5030403;28;20672;-65
2021/06/27 01:08:47;;;;;;;11.93;10.83;;;17.30;99.90;;;;;;5031757;28;20221;-65
2021/06/27 01:11:13;;;;;;;14.40;11.83;;;17.20;99.90;;;;;;5033715;28;20172;-65
2021/06/27 01:13:38;;;;;;;14.07;12.70;;;17.20;99.90;;;;;;5034451;28;20178;-65
2021/06/27 01:16:04;;;;;;;12.03;11.00;;;17.10;99.90;;;;;;5023995;28;20677;-65
2021/06/27 01:18:30;;;;;;;12.80;11.67;;;17.10;99.90;;;;;;5014363;28;20554;-64
2021/06/27 01:20:56;;;;;;;13.23;11.93;;;17.10;99.90;;;;;;5014576;28;20172;-65
2021/06/27 01:23:22;;;;;;;12.77;11.47;;;17.00;99.90;;;;;;5014383;28;20168;-65
2021/06/27 01:25:50;;;;;;;12.47;11.37;;;17.00;99.90;;;;;;5014381;28;20187;-65
2021/06/27 01:28:17;;;;;;;13.43;12.13;;;17.10;99.90;;;;;;5014282;28;20227;-66
2021/06/27 01:30:44;;;;;;;13.23;12.03;;;17.00;99.90;;;;;;5014212;28;20207;-66
2021/06/27 01:33:14;;;;;;;14.50;13.00;;;17.00;99.90;;;;;;5014452;28;20179;-65
2021/06/27 01:35:40;;;;;;;14.53;12.20;;;17.00;99.90;;;;;;5014100;28;20257;-66
2021/06/27 01:38:06;;;;;;;13.07;11.87;;;16.90;99.90;;;;;;5014153;28;20243;-65
2021/06/27 01:40:33;;;;;;;14.03;12.73;;;16.90;99.90;;;;;;5014079;28;20307;-66
2021/06/27 01:43:25;;;;;;;14.23;12.70;;;16.90;99.90;;;;;;5014113;28;20172;-66
2021/06/27 01:45:56;;;;;;;13.53;12.23;;;16.90;99.90;;;;;;5013012;28;20658;-66
2021/06/27 01:48:22;;;;;;;14.70;13.30;;;16.90;99.90;;;;;;5012429;28;20219;-66
2021/06/27 01:50:51;;;;;;;13.90;12.33;;;16.90;99.90;;;;;;5014028;28;20176;-65
2021/06/27 01:53:19;;;;;;;14.40;13.07;;;16.90;99.90;;;;;;5030022;28;20180;-66
2021/06/27 01:55:45;;;;;;;14.53;13.00;;;16.80;99.90;;;;;;5033794;28;20404;-66
2021/06/27 01:58:11;;;;;;;14.73;13.33;;;16.70;99.90;;;;;;5034092;28;20202;-66
2021/06/27 02:00:37;;;;;;;14.47;12.93;;;16.70;99.90;;;;;;5033452;28;20187;-65
2021/06/27 02:03:03;;;;;;;14.63;13.30;;;16.70;99.90;;;;;;5033891;28;20182;-66
2021/06/27 02:05:30;;;;;;;14.33;12.93;;;16.70;99.90;;;;;;5033446;28;20668;-66
2021/06/27 02:07:58;;;;;;;15.70;13.43;;;16.60;99.90;;;;;;5033327;28;20196;-65
2021/06/27 02:10:25;;;;;;;14.87;13.53;;;16.60;99.90;;;;;;5033460;28;20171;-66
2021/06/27 02:12:53;;;;;;;14.77;13.27;;;16.60;99.90;;;;;;5033406;28;20207;-66
2021/06/27 02:15:19;;;;;;;14.70;13.33;;;16.50;99.90;;;;;;5033216;28;20199;-65
2021/06/27 02:17:54;;;;;;;14.77;13.37;;;16.50;99.90;;;;;;5032893;28;20194;-65
2021/06/27 02:20:20;;;;;;;14.27;12.97;;;16.50;99.90;;;;;;5032451;28;20171;-64
2021/06/27 02:22:46;;;;;;;14.90;13.40;;;16.50;99.90;;;;;;5033299;28;20179;-64
2021/06/27 02:25:12;;;;;;;15.53;13.93;;;16.60;99.90;;;;;;5033209;28;20589;-64
2021/06/27 02:27:38;;;;;;;14.50;13.10;;;16.60;99.90;;;;;;5032759;28;20270;-64
2021/06/27 02:30:07;;;;;;;14.77;13.27;;;16.60;99.90;;;;;;5033044;28;20267;-64
2021/06/27 02:32:32;;;;;;;14.40;13.00;;;16.60;99.90;;;;;;5032920;28;20172;-64
2021/06/27 02:34:58;;;;;;;14.77;13.23;;;16.60;99.90;;;;;;5032873;28;20215;-65
2021/06/27 02:37:24;;;;;;;14.40;11.57;;;16.50;99.90;;;;;;5032682;28;20194;-64
2021/06/27 02:39:49;;;;;;;15.23;11.40;;;16.40;99.90;;;;;;5032936;28;20221;-65
2021/06/27 02:42:15;;;;;;;13.40;12.10;;;16.30;99.90;;;;;;5032764;28;20186;-65
2021/06/27 02:44:41;;;;;;;14.13;12.67;;;16.30;99.90;;;;;;5032406;28;20214;-66
2021/06/27 02:47:06;;;;;;;13.10;11.83;;;16.30;99.90;;;;;;5032481;28;20175;-66
2021/06/27 02:49:32;;;;;;;12.80;11.50;;;16.30;99.90;;;;;;5031343;28;20191;-66
2021/06/27 02:51:57;;;;;;;13.33;12.03;;;16.20;99.90;;;;;;5027395;28;20230;-64
2021/06/27 02:54:23;;;;;;;13.40;12.00;;;16.20;99.90;;;;;;5012765;28;20168;-66
2021/06/27 02:56:49;;;;;;;13.57;12.13;;;16.20;99.90;;;;;;5012541;28;20519;-67
2021/06/27 02:59:14;;;;;;;14.40;13.07;;;16.20;99.90;;;;;;5012752;28;20199;-66
2021/06/27 03:01:41;;;;;;;13.40;12.10;;;16.20;99.90;;;;;;5012738;28;20204;-64
2021/06/27 03:04:07;;;;;;;13.83;12.43;;;16.20;99.90;;;;;;5012899;28;20176;-64
2021/06/27 03:06:32;;;;;;;13.30;12.00;;;16.30;99.90;;;;;;5012025;28;20635;-66
2021/06/27 03:08:58;;;;;;;13.37;12.13;;;16.20;99.90;;;;;;5012496;28;20192;-65
2021/06/27 03:11:23;;;;;;;13.40;12.07;;;16.20;99.90;;;;;;5012558;28;20700;-66
2021/06/27 03:13:49;;;;;;;15.07;13.57;;;16.10;99.90;;;;;;5012427;28;20541;-66
2021/06/27 03:16:15;;;;;;;15.00;13.20;;;16.20;99.90;;;;;;5012250;28;20207;-66
2021/06/27 03:18:40;;;;;;;13.33;12.03;;;16.20;99.90;;;;;;5012109;28;20196;-65
2021/06/27 03:21:07;;;;;;;13.30;11.97;;;16.30;99.90;;;;;;5011123;28;20180;-66
2021/06/27 03:23:33;;;;;;;14.60;13.20;;;16.40;99.90;;;;;;5012208;28;20172;-65
2021/06/27 03:25:58;;;;;;;14.20;12.87;;;16.50;99.90;;;;;;5012207;28;20555;-65
2021/06/27 03:28:25;;;;;;;15.20;13.70;;;16.50;99.90;;;;;;5012124;28;20204;-66
2021/06/27 03:30:51;;;;;;;14.63;13.10;;;16.60;99.90;;;;;;5012441;28;20627;-65
2021/06/27 03:33:17;;;;;;;13.77;12.53;;;16.80;99.90;;;;;;5011897;28;20183;-65
2021/06/27 03:35:42;;;;;;;14.13;12.83;;;16.90;99.90;;;;;;5011914;28;20410;-66
2021/06/27 03:40:34;;;;;;;15.30;13.90;;;17.30;99.90;;;;;;5012033;28;20262;-66
2021/06/27 03:43:01;;;;;;;15.40;14.00;;;17.50;99.90;;;;;;5012188;28;20175;-66
2021/06/27 03:45:28;;;;;;;13.57;12.30;;;17.70;99.90;;;;;;5012328;28;20168;-66
2021/06/27 03:47:54;;;;;;;13.30;12.10;;;17.90;99.90;;;;;;5012045;28;20195;-65
2021/06/27 03:50:19;;;;;;;12.97;11.80;;;18.10;99.90;;;;;;5012358;28;20258;-66
2021/06/27 03:52:46;;;;;;;13.07;11.87;;;18.20;99.90;;;;;;5023606;28;20180;-66
2021/06/27 03:55:13;;;;;;;12.03;10.93;;;18.30;99.90;;;;;;5031985;28;20211;-66
2021/06/27 03:57:38;;;;;;;12.57;11.37;;;18.30;99.90;;;;;;5031730;28;20203;-65
2021/06/27 04:00:06;;;;;;;12.30;10.97;;;18.30;99.90;;;;;;5032016;28;20183;-66
2021/06/27 04:02:32;;;;;;;12.27;11.17;;;18.30;99.90;;;;;;5032056;28;20175;-67
2021/06/27 04:04:57;;;;;;;11.90;10.80;;;18.20;99.90;;;;;;5031597;28;20295;-65
2021/06/27 04:07:23;;;;;;;11.77;10.67;;;18.20;99.90;;;;;;5031792;28;20192;-66
2021/06/27 04:09:48;;;;;;;11.63;10.70;;;18.30;99.90;;;;;;5032071;28;20525;-65
2021/06/27 04:12:14;;;;;;;12.97;11.87;;;18.50;99.90;;;;;;5032663;28;20634;-66
2021/06/27 04:14:40;;;;;;;11.30;10.33;;;18.80;99.90;;;;;;5031640;28;20210;-65
2021/06/27 04:17:06;;;;;;;13.10;11.80;;;18.90;99.90;;;;;;5031387;28;20269;-66
2021/06/27 04:19:32;;;;;;;13.17;11.77;;;19.10;99.90;;;;;;5031434;28;20225;-66
2021/06/27 04:21:57;;;;;;;12.07;11.07;;;19.30;99.90;;;;;;5031693;28;20263;-66
2021/06/27 04:24:23;;;;;;;11.60;10.60;;;19.20;99.90;;;;;;5031569;28;20617;-66
2021/06/27 04:26:48;;;;;;;11.87;10.87;;;19.20;99.90;;;;;;5031309;28;20253;-66
2021/06/27 04:29:16;;;;;;;11.87;10.77;;;19.10;99.90;;;;;;5031577;28;20195;-65
2021/06/27 04:31:42;;;;;;;12.60;11.57;;;19.00;99.90;;;;;;5031564;28;20180;-66
2021/06/27 04:34:09;;;;;;;12.77;11.53;;;18.80;99.90;;;;;;5031601;28;20175;-65
2021/06/27 04:36:35;;;;;;;12.80;11.73;;;18.80;99.90;;;;;;5030918;28;20784;-66
2021/06/27 04:39:00;;;;;;;13.23;11.93;;;18.70;99.90;;;;;;5031434;28;20270;-65
2021/06/27 04:41:26;;;;;;;12.70;11.50;;;18.70;99.90;;;;;;5031357;28;20503;-66
2021/06/27 04:43:52;;;;;;;12.00;10.90;;;18.60;99.90;;;;;;5031502;28;20175;-66
2021/06/27 04:46:17;;;;;;;11.13;10.23;;;18.60;99.90;;;;;;5035330;28;20183;-66
2021/06/27 04:48:43;;;;;;;12.60;11.50;;;18.60;99.90;;;;;;5035306;28;20307;-65
2021/06/27 04:51:09;;;;;;;16.53;11.60;;;18.70;99.90;;;;;;5035480;28;20182;-65
2021/06/27 04:53:34;;;;;;;12.57;11.57;;;18.70;99.90;;;;;;5016974;28;20192;-67
2021/06/27 04:56:00;;;;;;;13.10;11.90;;;18.80;99.90;;;;;;5015261;28;20713;-66
2021/06/27 04:58:26;;;;;;;14.37;12.97;;;18.80;99.90;;;;;;5014876;28;20657;-66
2021/06/27 05:00:52;;;;;;;12.37;11.13;;;18.90;99.90;;;;;;5015411;28;20180;-66
2021/06/27 05:03:18;;;;;;;12.17;11.17;;;19.00;99.90;;;;;;5015294;28;20165;-66
2021/06/27 05:05:43;;;;;;;12.80;11.67;;;19.10;99.90;;;;;;5015217;28;20219;-65
2021/06/27 05:08:09;;;;;;;13.03;11.90;;;19.20;99.90;;;;;;5014933;28;20286;-65
2021/06/27 05:10:35;;;;;;;14.00;12.70;;;19.40;99.90;;;;;;5015207;28;20549;-64
2021/06/27 05:13:00;;;;;;;15.27;14.07;;;19.50;99.90;;;;;;5015044;28;20184;-66
2021/06/27 05:15:26;;;;;;;14.50;13.30;;;19.70;99.90;;;;;;5014887;28;20757;-66
2021/06/27 05:17:52;;;;;;;13.57;12.30;;;20.00;99.90;;;;;;5014971;28;20260;-66
2021/06/27 05:20:17;;;;;;;13.00;11.80;;;20.30;99.90;;;;;;5015087;28;20183;-65
2021/06/27 05:22:43;;;;;;;13.27;12.20;;;20.60;99.90;;;;;;5015104;28;20188;-66
2021/06/27 05:25:09;;;;;;;12.35;11.25;;;20.90;99.90;;;;;;5014772;28;20180;-66
2021/06/27 05:27:35;;;;;;;11.73;10.73;;;21.10;99.90;;;;;;5014462;28;20204;-65
2021/06/27 05:30:01;;;;;;;12.40;11.18;;;21.30;99.90;;;;;;5014321;28;20176;-65
2021/06/27 05:32:27;;;;;;;12.07;11.07;;;21.30;99.90;;;;;;5014366;28;20542;-65
2021/06/27 05:34:52;;;;;;;11.88;10.77;;;21.50;99.90;;;;;;5014160;28;20210;-65
2021/06/27 05:37:18;;;;;;;11.73;10.52;;;21.80;99.90;;;;;;5013892;28;20188;-65
2021/06/27 05:39:44;;;;;;;11.93;10.88;;;22.30;99.90;;;;;;5014179;28;20172;-65
2021/06/27 05:42:09;;;;;;;10.85;9.95;;;22.60;99.90;;;;;;5014329;28;20528;-65
2021/06/27 05:44:35;;;;;;;11.90;9.93;;;22.80;99.90;;;;;;5014034;28;20180;-65
2021/06/27 05:47:01;;;;;;;11.60;10.57;;;23.10;99.90;;;;;;5013701;28;20179;-65
2021/06/27 05:49:26;;;;;;;12.85;10.15;;;23.40;99.90;;;;;;5013751;28;20203;-65
2021/06/27 05:51:52;;;;;;;11.13;10.13;;;23.60;99.90;;;;;;5018527;28;20230;-65
2021/06/27 05:54:18;;;;;;;11.07;9.98;;;24.00;99.90;;;;;;5033573;28;20310;-64
2021/06/27 05:56:43;;;;;;;10.60;9.68;;;24.40;99.90;;;;;;5033466;28;20175;-65
2021/06/27 05:59:09;;;;;;;9.48;8.68;;;24.60;99.90;;;;;;5033635;28;20608;-65
2021/06/27 06:01:35;;;;;;;11.13;10.13;;;25.00;99.90;;;;;;5033486;28;20172;-65
2021/06/27 06:04:00;;;;;;;9.98;9.02;;;24.90;99.90;;;;;;5033605;28;20533;-66
2021/06/27 06:06:26;;;;;;;10.45;9.48;;;24.90;99.90;;;;;;5033126;28;20550;-67
2021/06/27 06:08:52;;;;;;;11.23;10.18;;;24.90;99.90;;;;;;5033395;28;20198;-66
2021/06/27 06:11:17;;;;;;;10.88;10.02;;;24.90;99.90;;;;;;5033508;28;20661;-66
2021/06/27 06:13:43;;;;;;;10.63;9.82;;;24.80;99.90;;;;;;5033719;28;20172;-66
2021/06/27 06:16:10;;;;;;;10.73;9.82;;;24.80;99.90;;;;;;5033125;28;20203;-64
2021/06/27 06:18:39;;;;;;;12.35;9.85;;;24.90;99.90;;;;;;5033278;28;20704;-66
2021/06/27 06:21:05;;;;;;;10.48;9.55;;;24.90;99.90;;;;;;5033410;28;20268;-66
2021/06/27 06:23:30;;;;;;;10.45;9.45;;;25.00;99.90;;;;;;5033308;28;20168;-64
2021/06/27 06:25:56;;;;;;;9.15;8.35;;;25.20;99.90;;;;;;5032982;28;20229;-65
2021/06/27 06:28:22;;;;;;;10.07;9.27;;;25.30;99.90;;;;;;5032794;28;20614;-64
2021/06/27 06:30:48;;;;;;;9.88;9.07;;;25.50;99.90;;;;;;5020235;28;20184;-66
2021/06/27 06:33:14;;;;;;;9.50;8.52;;;25.90;99.90;;;;;;5012951;28;20177;-65
2021/06/27 06:35:42;;;;;;;9.98;8.95;;;26.10;99.90;;;;;;5012785;28;20211;-65
2021/06/27 06:38:09;;;;;;;8.23;7.53;;;26.50;99.90;;;;;;5012790;28;20188;-65
2021/06/27 06:40:37;;;;;;;8.50;7.80;;;26.70;99.90;;;;;;5012852;28;20203;-64
2021/06/27 06:43:03;;;;;;;8.35;7.60;;;26.90;99.90;;;;;;5012722;28;20184;-66
2021/06/27 06:45:28;;;;;;;10.15;9.25;;;27.30;99.90;;;;;;5012870;28;20176;-65
2021/06/27 06:47:55;;;;;;;9.95;9.25;;;27.50;99.90;;;;;;5012430;28;20199;-66
2021/06/27 06:50:21;;;;;;;10.20;9.40;;;28.00;99.90;;;;;;5013056;28;20184;-66
2021/06/27 06:52:47;;;;;;;9.13;8.43;;;28.10;99.90;;;;;;5024594;28;20246;-65
2021/06/27 06:55:13;;;;;;;10.73;9.82;;;28.30;99.90;;;;;;5032428;28;20203;-67
2021/06/27 06:57:38;;;;;;;10.07;9.38;;;28.20;99.90;;;;;;5032175;28;20665;-67
2021/06/27 07:00:06;;;;;;;8.40;7.70;;;27.90;99.90;;;;;;5032409;28;20562;-66
2021/06/27 07:02:31;;;;;;;9.18;8.57;;;27.80;99.90;;;;;;5032146;28;20164;-66
2021/06/27 07:04:57;;;;;;;7.57;6.97;;;27.60;99.90;;;;;;5032306;28;20186;-66
2021/06/27 07:07:23;;;;;;;7.68;7.07;;;27.20;99.90;;;;;;5031361;28;20191;-66
2021/06/27 07:09:48;;;;;;;8.02;7.22;;;26.80;99.90;;;;;;5032358;28;20544;-66
2021/06/27 07:12:14;;;;;;;8.15;7.45;;;26.30;99.90;;;;;;5031321;28;20646;-66
2021/06/27 07:14:40;;;;;;;7.68;7.07;;;26.20;99.90;;;;;;5032346;28;20238;-67
2021/06/27 07:17:05;;;;;;;7.55;6.85;;;26.20;99.90;;;;;;5031907;28;20169;-66
2021/06/27 07:19:31;;;;;;;7.18;6.43;;;26.50;99.90;;;;;;5031978;28;20221;-65
2021/06/27 07:21:57;;;;;;;7.80;7.10;;;26.70;99.90;;;;;;5032312;28;20167;-66
2021/06/27 07:24:22;;;;;;;7.30;6.60;;;27.00;99.90;;;;;;5031825;28;20171;-67
2021/06/27 07:26:48;;;;;;;8.02;7.43;;;27.10;99.90;;;;;;5031638;28;20199;-66
2021/06/27 07:29:14;;;;;;;8.35;7.63;;;27.10;99.90;;;;;;5031499;28;20187;-66
2021/06/27 07:31:40;;;;;;;8.52;7.82;;;27.30;99.90;;;;;;5031600;28;20174;-66
2021/06/27 07:34:05;;;;;;;8.32;7.63;;;27.60;99.90;;;;;;5031511;28;20255;-66
2021/06/27 07:36:31;;;;;;;7.88;7.22;;;27.90;99.90;;;;;;5031383;28;20538;-67
2021/06/27 07:38:57;;;;;;;8.02;7.43;;;27.90;99.90;;;;;;5031362;28;20278;-67
2021/06/27 07:41:22;;;;;;;10.07;8.77;;;27.80;99.90;;;;;;5031646;28;20198;-66
2021/06/27 07:43:50;;;;;;;8.45;7.85;;;28.00;99.90;;;;;;5031662;28;20178;-66
2021/06/27 07:46:16;;;;;;;8.23;7.63;;;27.90;99.90;;;;;;5031401;28;20183;-66
2021/06/27 07:48:42;;;;;;;8.70;8.00;;;27.90;99.90;;;;;;5031191;28;20214;-66
2021/06/27 07:51:08;;;;;;;7.68;7.13;;;28.10;99.90;;;;;;5031460;28;20178;-67
2021/06/27 07:53:33;;;;;;;8.32;7.72;;;28.40;99.90;;;;;;5013179;28;20297;-66
2021/06/27 07:55:59;;;;;;;7.95;7.35;;;28.30;99.90;;;;;;5011771;28;20203;-66
2021/06/27 07:58:25;;;;;;;7.63;7.00;;;28.60;99.90;;;;;;5011550;28;20191;-67
2021/06/27 08:00:50;;;;;;;7.35;6.60;;;29.00;99.90;;;;;;5011698;28;20540;-65
2021/06/27 08:03:16;;;;;;;8.00;7.30;;;29.20;99.90;;;;;;5011611;28;20172;-66
2021/06/27 08:05:42;;;;;;;7.57;7.07;;;29.10;99.90;;;;;;5011324;28;20183;-67
2021/06/27 08:08:07;;;;;;;9.82;9.07;;;29.00;99.90;;;;;;5011606;28;20265;-66
2021/06/27 08:10:33;;;;;;;9.98;9.27;;;29.20;99.90;;;;;;5011341;28;20255;-66
2021/06/27 08:12:59;;;;;;;7.53;7.03;;;29.70;99.90;;;;;;5011706;28;20199;-66
2021/06/27 08:15:25;;;;;;;7.57;7.07;;;30.10;99.90;;;;;;5011245;28;20195;-67
2021/06/27 08:17:52;;;;;;;7.78;7.18;;;30.40;99.90;;;;;;5011330;28;20198;-67
2021/06/27 08:20:19;;;;;;;8.07;7.47;;;30.60;99.90;;;;;;5014929;28;20207;-67
2021/06/27 08:22:45;;;;;;;7.30;6.60;;;30.80;99.90;;;;;;5015667;28;20247;-66
2021/06/27 08:25:11;;;;;;;7.95;7.45;;;30.80;99.90;;;;;;5015731;28;20635;-66
2021/06/27 08:27:38;;;;;;;7.10;6.57;;;30.70;99.90;;;;;;5015398;28;20203;-66
2021/06/27 08:30:08;;;;;;;8.48;7.88;;;30.40;99.90;;;;;;5015777;28;20168;-65
2021/06/27 08:32:34;;;;;;;8.43;7.75;;;30.40;99.90;;;;;;5014178;28;20646;-65
2021/06/27 08:35:00;;;;;;;7.80;7.30;;;30.20;99.90;;;;;;5015374;28;20204;-66
2021/06/27 08:37:26;;;;;;;7.68;7.13;;;29.60;99.90;;;;;;5014848;28;20712;-66
2021/06/27 08:39:52;;;;;;;8.10;7.40;;;29.60;99.90;;;;;;5015367;28;20299;-67
2021/06/27 08:42:19;;;;;;;8.65;7.95;;;29.60;99.90;;;;;;5015402;28;20222;-66
2021/06/27 08:44:45;;;;;;;7.22;6.68;;;29.60;99.90;;;;;;5015229;28;20195;-66
2021/06/27 08:47:16;;;;;;;7.32;6.75;;;29.70;99.90;;;;;;5015146;28;20720;-67
2021/06/27 08:49:45;;;;;;;9.68;8.98;;;30.20;99.90;;;;;;5014857;28;20196;-66
2021/06/27 08:52:16;;;;;;;7.88;7.28;;;30.50;99.90;;;;;;5022199;28;20225;-66
2021/06/27 08:54:42;;;;;;;11.55;10.75;;;30.60;99.90;;;;;;5034556;28;20297;-66
2021/06/27 08:57:07;;;;;;;9.63;9.02;;;30.70;99.90;;;;;;5034346;28;20198;-65
2021/06/27 08:59:33;;;;;;;7.80;7.20;;;30.80;99.90;;;;;;5034440;28;20164;-66
2021/06/27 09:02:00;;;;;;;10.45;9.65;;;30.90;99.90;;;;;;5035027;28;20203;-65
2021/06/27 09:04:26;;;;;;;9.93;9.23;;;31.10;99.90;;;;;;5034406;28;20167;-65
2021/06/27 09:06:51;;;;;;;7.82;7.22;;;31.30;99.90;;;;;;5034578;28;20179;-65
2021/06/27 09:09:21;;;;;;;7.00;6.50;;;31.70;99.90;;;;;;5034260;28;20681;-65
2021/06/27 09:12:02;;;;;;;8.25;7.65;;;32.00;99.90;;;;;;5034404;28;20207;-65
2021/06/27 09:14:32;;;;;;;8.27;7.68;;;32.30;99.90;;;;;;5034313;28;20198;-65
2021/06/27 09:17:18;;;;;;;7.30;6.80;;;31.90;99.90;;;;;;5034071;28;20171;-66
2021/06/27 09:20:03;;;;;;;7.65;7.05;;;31.50;99.90;;;;;;5034806;28;20221;-66
2021/06/27 09:22:39;;;;;;;7.75;7.15;;;31.30;99.90;;;;;;5033995;28;20176;-66
2021/06/27 09:25:25;;;;;;;7.43;6.88;;;31.60;99.90;;;;;;5034085;28;20198;-66
2021/06/27 09:28:17;;;;;;;6.70;6.22;;;31.70;99.90;;;;;;5033687;28;20283;-65
2021/06/27 09:30:52;;;;;;;6.95;6.40;;;32.20;99.90;;;;;;5033572;28;20199;-66
2021/06/27 09:33:21;;;;;;;6.57;6.10;;;32.50;99.90;;;;;;5033751;28;20171;-65
2021/06/27 09:35:50;;;;;;;7.75;7.20;;;32.40;99.90;;;;;;5033765;28;20214;-66
2021/06/27 09:38:50;;;;;;;6.80;6.30;;;32.70;99.90;;;;;;5033575;28;20196;-65
2021/06/27 09:41:24;;;;;;;6.05;5.65;;;32.50;99.90;;;;;;5033857;28;20179;-66
2021/06/27 09:43:52;;;;;;;6.20;5.80;;;32.50;99.90;;;;;;5033846;28;20175;-66
2021/06/27 09:46:28;;;;;;;6.90;6.40;;;32.70;99.90;;;;;;5033468;28;20187;-66
2021/06/27 09:48:56;;;;;;;7.07;6.47;;;32.90;99.90;;;;;;5033589;28;20598;-66
2021/06/27 09:51:28;;;;;;;6.45;6.05;;;33.20;99.90;;;;;;5033298;28;20633;-65
2021/06/27 09:53:54;;;;;;;5.68;5.28;;;33.30;99.90;;;;;;5013868;28;20195;-65
2021/06/27 09:56:23;;;;;;;7.60;7.03;;;33.60;99.90;;;;;;5013544;28;20288;-66
2021/06/27 09:59:04;;;;;;;6.10;5.70;;;33.50;99.90;;;;;;5013647;28;20604;-65
2021/06/27 10:01:31;;;;;;;6.10;5.70;;;33.50;99.90;;;;;;5012960;28;20199;-66
2021/06/27 10:04:01;;;;;;;5.72;5.32;;;33.40;99.90;;;;;;5013742;28;20172;-65
2021/06/27 10:06:30;;;;;;;5.80;5.40;;;33.50;99.90;;;;;;5013027;28;20180;-65
2021/06/27 10:09:11;;;;;;;6.55;6.05;;;33.50;99.90;;;;;;5012521;28;20728;-65
2021/06/27 10:11:37;;;;;;;5.72;5.32;;;33.40;99.90;;;;;;5013266;28;20672;-65
2021/06/27 10:14:09;;;;;;;5.97;5.57;;;33.30;99.90;;;;;;5013646;28;20176;-64
2021/06/27 10:16:35;;;;;;;6.82;6.38;;;32.90;99.90;;;;;;5012978;28;20254;-65
2021/06/27 10:19:02;;;;;;;7.28;6.78;;;32.80;99.90;;;;;;5013423;28;20681;-65
2021/06/27 10:21:29;;;;;;;6.50;5.97;;;32.70;99.90;;;;;;5013290;28;20176;-66
2021/06/27 10:23:55;;;;;;;6.07;5.57;;;32.70;99.90;;;;;;5013648;28;20176;-65
2021/06/27 10:26:23;;;;;;;5.50;5.10;;;33.10;99.90;;;;;;5012849;28;20184;-65
2021/06/27 10:28:50;;;;;;;5.85;5.45;;;33.60;99.90;;;;;;5013155;28;20200;-66
2021/06/27 10:31:17;;;;;;;5.35;4.95;;;33.80;99.90;;;;;;5013252;28;20179;-65
2021/06/27 10:33:47;;;;;;;5.50;5.13;;;33.70;99.90;;;;;;5013070;28;20251;-65
2021/06/27 10:36:18;;;;;;;6.32;5.93;;;33.30;99.90;;;;;;5012812;28;20200;-65
2021/06/27 10:38:48;;;;;;;6.72;6.32;;;32.80;99.90;;;;;;5012870;28;20195;-65
2021/06/27 10:41:14;;;;;;;6.88;6.32;;;32.90;99.90;;;;;;5012031;28;20657;-65
2021/06/27 10:44:01;;;;;;;5.78;5.38;;;33.40;99.90;;;;;;5012732;28;20184;-65
2021/06/27 10:46:44;;;;;;;6.05;5.68;;;34.00;99.90;;;;;;5012551;28;20226;-65
2021/06/27 10:49:32;;;;;;;5.88;5.43;;;34.00;99.90;;;;;;5012479;28;20257;-65
2021/06/27 10:52:04;;;;;;;6.50;6.10;;;34.00;99.90;;;;;;5018076;28;20172;-65
2021/06/27 10:54:31;;;;;;;7.60;7.10;;;34.10;99.90;;;;;;5032304;28;20172;-66
2021/06/27 10:57:04;;;;;;;6.03;5.57;;;33.90;99.90;;;;;;5032226;28;20167;-65
2021/06/27 10:59:38;;;;;;;6.47;6.00;;;33.10;99.90;;;;;;5032454;28;20168;-66
2021/06/27 11:02:31;;;;;;;6.22;5.82;;;32.90;99.90;;;;;;5032598;28;20249;-66
2021/06/27 11:05:41;;;;;;;6.63;6.22;;;33.00;99.90;;;;;;5032312;28;20168;-65
2021/06/27 11:08:07;;;;;;;6.80;6.30;;;32.70;99.90;;;;;;5030854;28;20250;-66
2021/06/27 11:10:36;;;;;;;6.57;6.18;;;33.00;99.90;;;;;;5031794;28;20572;-65
2021/06/27 11:13:12;;;;;;;6.10;5.60;;;32.70;99.90;;;;;;5032284;28;20217;-66
2021/06/27 11:15:43;;;;;;;6.00;5.60;;;32.40;99.90;;;;;;5031969;28;20210;-65
2021/06/27 11:18:10;;;;;;;6.78;6.28;;;32.60;99.90;;;;;;5032211;28;20249;-66
2021/06/27 11:20:56;;;;;;;5.68;5.28;;;32.60;99.90;;;;;;5031947;28;20164;-66
2021/06/27 11:23:47;;;;;;;5.50;5.10;;;32.80;99.90;;;;;;5031809;28;20170;-65
2021/06/27 11:26:37;;;;;;;6.40;5.90;;;32.90;99.90;;;;;;5031758;28;20176;-66
2021/06/27 11:29:23;;;;;;;6.88;6.38;;;33.30;99.90;;;;;;5031910;28;20271;-67
2021/06/27 11:31:49;;;;;;;5.78;5.38;;;33.30;99.90;;;;;;5031944;28;20175;-66
2021/06/27 11:34:28;;;;;;;6.97;5.78;;;32.90;99.90;;;;;;5031881;28;20258;-66
2021/06/27 11:37:16;;;;;;;6.78;6.38;;;33.10;99.90;;;;;;5032003;28;20195;-66
2021/06/27 11:39:45;;;;;;;6.38;5.97;;;33.70;99.90;;;;;;5031872;28;20202;-66
2021/06/27 11:42:26;;;;;;;6.38;5.97;;;33.80;99.90;;;;;;5031821;28;20238;-66
2021/06/27 11:45:07;;;;;;;6.15;5.75;;;34.10;99.90;;;;;;5031775;28;20637;-66
2021/06/27 11:47:58;;;;;;;6.05;5.65;;;34.00;99.90;;;;;;5031378;28;20198;-66
2021/06/27 11:50:26;;;;;;;5.32;4.93;;;34.40;99.90;;;;;;5028601;28;20202;-66
2021/06/27 11:52:59;;;;;;;5.95;5.60;;;34.40;99.90;;;;;;5018880;28;20176;-67
2021/06/27 11:55:26;;;;;;;6.07;5.68;;;34.50;99.90;;;;;;5011426;28;20692;-66
2021/06/27 11:57:52;;;;;;;5.97;5.68;;;34.60;99.90;;;;;;5011700;28;20223;-66
2021/06/27 12:00:18;;;;;;;4.78;4.47;;;35.30;99.90;;;;;;5011845;28;20172;-66
2021/06/27 12:02:44;;;;;;;4.50;4.20;;;35.70;99.90;;;;;;5011837;28;20179;-67
2021/06/27 12:05:14;;;;;;;5.32;5.03;;;36.40;99.90;;;;;;5011630;28;20172;-66
2021/06/27 12:07:44;;;;;;;4.97;4.57;;;35.90;99.90;;;;;;5010175;28;20235;-66
2021/06/27 12:10:16;;;;;;;5.57;5.18;;;35.10;99.90;;;;;;5010360;28;20176;-66
2021/06/27 12:12:47;;;;;;;6.15;5.75;;;34.60;99.90;;;;;;5011815;28;20172;-67
2021/06/27 12:15:19;;;;;;;6.57;6.13;;;34.10;99.90;;;;;;5011421;28;20231;-66
2021/06/27 12:17:48;;;;;;;5.57;5.20;;;33.70;99.90;;;;;;5011146;28;20196;-65
2021/06/27 12:20:15;;;;;;;6.40;5.90;;;33.10;99.90;;;;;;5011785;28;20211;-66
2021/06/27 12:23:09;;;;;;;6.07;5.68;;;32.80;99.90;;;;;;5011272;28;20631;-67
2021/06/27 12:25:40;;;;;;;6.05;5.65;;;32.30;99.90;;;;;;5010638;28;20235;-66
2021/06/27 12:28:15;;;;;;;5.80;5.40;;;32.20;99.90;;;;;;5011350;28;20219;-65
2021/06/27 12:30:46;;;;;;;6.72;6.32;;;32.10;99.90;;;;;;5011396;28;20184;-66
2021/06/27 12:33:18;;;;;;;5.78;5.38;;;32.10;99.90;;;;;;5011243;28;20585;-64
2021/06/27 12:35:45;;;;;;;6.07;5.68;;;32.10;99.90;;;;;;5011039;28;20254;-65
2021/06/27 12:38:12;;;;;;;6.15;5.75;;;32.30;99.90;;;;;;5011229;28;20223;-67
2021/06/27 12:40:49;;;;;;;6.90;6.50;;;32.60;99.90;;;;;;5011253;28;20247;-66
2021/06/27 12:43:25;;;;;;;6.28;5.45;;;32.90;99.90;;;;;;5011131;28;20172;-65
2021/06/27 12:46:14;;;;;;;5.55;5.25;;;32.70;99.90;;;;;;5011497;28;20180;-66